createdAt,value
2024-03-05T00:00:39.460Z,80.31
2024-03-05T00:03:06.485Z,80.41
2024-03-05T00:05:33.528Z,80.42
2024-03-05T00:08:00.696Z,80.47
2024-03-05T00:10:28.109Z,80.45
2024-03-05T00:12:55.460Z,80.53
2024-03-05T00:15:23.005Z,80.69
2024-03-05T00:17:50.021Z,80.85
2024-03-05T00:20:20.398Z,80.88
2024-03-05T00:22:48.519Z,80.89
2024-03-05T00:25:15.882Z,80.96
2024-03-05T00:27:43.063Z,81.07
2024-03-05T00:30:11.034Z,81.45
2024-03-05T00:32:41.209Z,81.66
2024-03-05T00:35:08.727Z,81.83
2024-03-05T00:37:37.118Z,81.91
2024-03-05T00:40:08.069Z,81.97
2024-03-05T00:42:39.097Z,82.10
2024-03-05T00:45:10.013Z,82.27
2024-03-05T00:47:37.964Z,82.57
2024-03-05T00:50:06.031Z,82.65
2024-03-05T00:52:34.467Z,82.62
2024-03-05T00:55:01.967Z,82.62
2024-03-05T00:57:30.290Z,82.75
2024-03-05T00:59:57.766Z,82.86
2024-03-05T01:02:24.928Z,82.92
2024-03-05T01:04:54.498Z,82.96
2024-03-05T01:07:21.982Z,83.10
2024-03-05T01:09:49.396Z,83.25
2024-03-05T01:12:17.163Z,83.42
2024-03-05T01:14:45.388Z,83.51
2024-03-05T01:17:13.989Z,83.63
2024-03-05T01:19:41.164Z,83.58
2024-03-05T01:22:08.344Z,83.72
2024-03-05T01:24:35.432Z,83.81
2024-03-05T01:27:02.478Z,83.86
2024-03-05T01:29:31.813Z,83.97
2024-03-05T01:32:01.404Z,84.07
2024-03-05T01:34:34.222Z,84.13
2024-03-05T01:37:01.400Z,84.31
2024-03-05T01:39:29.837Z,84.58
2024-03-05T01:41:57.343Z,84.67
2024-03-05T01:44:24.929Z,84.75
2024-03-05T01:46:53.078Z,84.81
2024-03-05T01:49:20.629Z,84.93
2024-03-05T01:51:47.631Z,85.13
2024-03-05T01:54:15.570Z,85.27
2024-03-05T01:56:43.945Z,85.36
2024-03-05T01:59:11.371Z,85.57
2024-03-05T02:01:38.679Z,85.72
2024-03-05T02:04:05.730Z,85.94
2024-03-05T02:06:32.986Z,85.97
2024-03-05T02:09:01.034Z,86.12
2024-03-05T02:11:28.230Z,86.46
2024-03-05T02:13:55.344Z,86.80
2024-03-05T02:16:22.393Z,86.90
2024-03-05T02:18:49.599Z,87.10
2024-03-05T02:21:22.023Z,87.18
2024-03-05T02:23:49.561Z,87.41
2024-03-05T02:26:18.886Z,87.59
2024-03-05T02:28:47.818Z,87.69
2024-03-05T02:31:14.880Z,87.98
2024-03-05T02:33:43.442Z,88.07
2024-03-05T02:36:10.556Z,88.33
2024-03-05T02:38:39.432Z,88.36
2024-03-05T02:41:06.906Z,88.52
2024-03-05T02:43:34.933Z,89.04
2024-03-05T02:46:02.072Z,89.09
2024-03-05T02:48:29.116Z,89.28
2024-03-05T02:50:56.582Z,89.43
2024-03-05T02:53:25.472Z,89.51
2024-03-05T02:55:52.439Z,89.73
2024-03-05T02:58:19.561Z,89.82
2024-03-05T03:00:48.294Z,90.07
2024-03-05T03:03:15.995Z,90.27
2024-03-05T03:05:42.997Z,90.39
2024-03-05T03:08:10.066Z,90.45
2024-03-05T03:10:37.183Z,90.58
2024-03-05T03:13:04.357Z,90.62
2024-03-05T03:15:31.759Z,90.62
2024-03-05T03:17:59.208Z,90.62
2024-03-05T03:20:26.297Z,90.74
2024-03-05T03:22:53.636Z,90.85
2024-03-05T03:25:20.837Z,90.91
2024-03-05T03:27:47.922Z,91.10
2024-03-05T03:30:19.499Z,91.30
2024-03-05T03:32:51.573Z,91.49
2024-03-05T03:35:19.270Z,91.71
2024-03-05T03:37:46.193Z,91.74
2024-03-05T03:40:22.291Z,91.89
2024-03-05T03:42:50.911Z,91.97
2024-03-05T03:45:18.523Z,92.16
2024-03-05T03:47:47.450Z,92.16
2024-03-05T03:50:14.745Z,92.34
2024-03-05T03:52:42.545Z,92.56
2024-03-05T03:55:10.337Z,92.73
2024-03-05T03:57:37.541Z,92.95
2024-03-05T04:00:09.306Z,93.13
2024-03-05T04:02:37.857Z,93.11
2024-03-05T04:05:06.240Z,93.28
2024-03-05T04:07:33.770Z,93.33
2024-03-05T04:10:03.824Z,93.54
2024-03-05T04:12:31.268Z,93.67
2024-03-05T04:14:58.220Z,93.95
2024-03-05T04:17:25.519Z,93.99
2024-03-05T04:19:52.777Z,94.11
2024-03-05T04:22:19.851Z,94.08
2024-03-05T04:24:58.354Z,94.21
2024-03-05T04:27:28.336Z,94.19
2024-03-05T04:29:58.255Z,94.29
2024-03-05T04:32:28.278Z,94.40
2024-03-05T04:35:07.984Z,94.43
2024-03-05T04:37:34.997Z,94.45
2024-03-05T04:40:01.951Z,94.61
2024-03-05T04:42:29.624Z,94.68
2024-03-05T04:44:56.666Z,94.62
2024-03-05T04:47:26.236Z,94.61
2024-03-05T04:49:53.453Z,94.63
2024-03-05T04:52:20.653Z,94.47
2024-03-05T04:54:47.673Z,94.52
2024-03-05T04:57:14.745Z,94.51
2024-03-05T04:59:42.493Z,94.55
2024-03-05T05:02:10.334Z,94.56
2024-03-05T05:04:39.463Z,94.54
2024-03-05T05:07:09.612Z,94.39
2024-03-05T05:09:41.127Z,94.61
2024-03-05T05:12:08.295Z,94.50
2024-03-05T05:14:38.632Z,94.22
2024-03-05T05:17:06.260Z,93.84
2024-03-05T05:19:33.404Z,93.71
2024-03-05T05:22:00.443Z,93.73
2024-03-05T05:24:27.444Z,93.43
2024-03-05T05:26:54.524Z,93.33
2024-03-05T05:29:31.429Z,93.38
2024-03-05T05:32:08.960Z,93.12
2024-03-05T05:34:36.806Z,92.57
2024-03-05T05:37:03.867Z,92.37
2024-03-05T05:39:30.896Z,92.39
2024-03-05T05:41:57.827Z,92.15
2024-03-05T05:44:24.968Z,92.00
2024-03-05T05:46:52.606Z,92.08
2024-03-05T05:49:22.602Z,91.85
2024-03-05T05:51:52.661Z,91.68
2024-03-05T05:54:22.632Z,91.96
2024-03-05T05:56:50.337Z,92.49
2024-03-05T05:59:18.926Z,92.54
2024-03-05T06:01:46.662Z,92.11
2024-03-05T06:04:15.761Z,91.69
2024-03-05T06:06:42.916Z,91.35
2024-03-05T06:09:10.311Z,91.21
2024-03-05T06:11:38.053Z,91.12
2024-03-05T06:14:05.490Z,90.97
2024-03-05T06:16:32.676Z,91.12
2024-03-05T06:19:00.020Z,90.81
2024-03-05T06:21:27.215Z,90.36
2024-03-05T06:23:54.199Z,89.91
2024-03-05T06:26:21.248Z,89.66
2024-03-05T06:28:48.331Z,89.33
2024-03-05T06:31:16.098Z,88.41
2024-03-05T06:33:43.183Z,87.81
2024-03-05T06:36:13.732Z,87.50
2024-03-05T06:38:41.148Z,86.47
2024-03-05T06:41:09.717Z,85.90
2024-03-05T06:43:39.809Z,86.20
2024-03-05T06:46:11.164Z,86.25
2024-03-05T06:48:39.481Z,85.88
2024-03-05T06:51:17.704Z,84.85
2024-03-05T06:54:03.395Z,84.02
2024-03-05T06:56:42.633Z,83.16
2024-03-05T06:59:11.817Z,82.41
2024-03-05T07:01:39.088Z,81.91
2024-03-05T07:04:08.191Z,81.26
2024-03-05T07:06:36.851Z,81.19
2024-03-05T07:09:03.998Z,80.74
2024-03-05T07:11:31.613Z,80.42
2024-03-05T07:13:59.509Z,80.05
2024-03-05T07:16:26.841Z,80.04
2024-03-05T07:18:56.855Z,80.40
2024-03-05T07:21:24.940Z,80.44
2024-03-05T07:23:54.674Z,80.62
2024-03-05T07:26:22.987Z,80.48
2024-03-05T07:28:50.393Z,80.12
2024-03-05T07:31:18.700Z,80.34
2024-03-05T07:33:49.279Z,80.82
2024-03-05T07:36:19.304Z,80.50
2024-03-05T07:38:47.069Z,78.94
2024-03-05T07:41:22.780Z,78.34
2024-03-05T07:43:57.244Z,77.66
2024-03-05T07:46:24.463Z,76.34
2024-03-05T07:48:51.403Z,75.33
2024-03-05T07:51:24.396Z,74.81
2024-03-05T07:53:55.249Z,73.64
2024-03-05T07:56:22.560Z,73.12
2024-03-05T07:58:49.748Z,73.60
2024-03-05T08:01:17.017Z,73.79
2024-03-05T08:03:44.407Z,73.87
2024-03-05T08:06:11.367Z,73.39
2024-03-05T08:08:38.506Z,72.65
2024-03-05T08:11:06.356Z,72.10
2024-03-05T08:13:36.904Z,71.16
2024-03-05T08:16:06.684Z,69.66
2024-03-05T08:18:33.926Z,68.05
2024-03-05T08:21:03.606Z,67.25
2024-03-05T08:23:30.797Z,67.34
2024-03-05T08:25:57.955Z,67.53
2024-03-05T08:28:25.782Z,67.06
2024-03-05T08:30:55.263Z,66.97
2024-03-05T08:33:25.236Z,66.93
2024-03-05T08:35:52.401Z,66.17
2024-03-05T08:38:19.394Z,65.07
2024-03-05T08:40:47.578Z,64.35
2024-03-05T08:43:15.675Z,64.39
2024-03-05T08:45:42.763Z,63.99
2024-03-05T08:48:09.916Z,63.52
2024-03-05T08:50:36.993Z,63.05
2024-03-05T08:53:06.336Z,62.22
2024-03-05T08:55:33.693Z,62.01
2024-03-05T08:58:01.786Z,62.45
2024-03-05T09:00:40.949Z,62.80
2024-03-05T09:04:11.651Z,62.05
2024-03-05T09:11:07.142Z,60.71
2024-03-05T09:13:34.554Z,60.49
2024-03-05T09:16:34.562Z,60.62
2024-03-05T09:19:02.040Z,60.08
2024-03-05T09:21:30.018Z,60.10
2024-03-05T09:23:58.398Z,59.82
2024-03-05T09:26:27.313Z,59.42
2024-03-05T09:28:55.234Z,59.24
2024-03-05T09:31:22.710Z,58.80
2024-03-05T09:33:50.166Z,58.95
2024-03-05T10:29:17.329Z,55.33
2024-03-05T10:31:45.485Z,54.92
2024-03-05T10:34:12.425Z,54.25
2024-03-05T10:36:40.924Z,52.67
2024-03-05T10:39:08.906Z,52.56
2024-03-05T10:41:47.205Z,53.09
2024-03-05T10:44:18.442Z,53.70
2024-03-05T10:46:46.789Z,53.17
2024-03-05T10:49:14.189Z,52.37
2024-03-05T10:51:41.774Z,52.00
2024-03-05T10:54:08.813Z,52.14
2024-03-05T11:01:01.440Z,51.44
2024-03-05T11:03:40.998Z,51.46
2024-03-05T11:06:08.774Z,51.70
2024-03-05T11:08:36.773Z,51.41
2024-03-05T11:11:06.620Z,51.34
2024-03-05T11:13:34.163Z,51.66
2024-03-05T11:16:03.398Z,51.48
2024-03-05T11:18:35.123Z,51.15
2024-03-05T11:21:09.326Z,51.29
2024-03-05T11:30:31.057Z,50.05
2024-03-05T11:33:10.716Z,50.23
2024-03-05T11:35:43.002Z,50.07
2024-03-05T11:38:15.485Z,50.05
2024-03-05T11:40:44.756Z,50.50
2024-03-05T11:50:54.714Z,49.55
2024-03-05T11:53:21.356Z,48.78
2024-03-05T11:55:51.957Z,48.65
2024-03-05T11:58:25.525Z,48.63
2024-03-05T12:01:01.627Z,48.99
2024-03-05T12:03:28.465Z,49.11
2024-03-05T12:05:55.381Z,49.13
2024-03-05T12:08:25.975Z,49.23
2024-03-05T12:11:01.118Z,49.31
2024-03-05T12:13:27.937Z,49.52
2024-03-05T12:15:54.525Z,49.50
2024-03-05T12:18:21.067Z,49.63
2024-03-05T12:20:48.131Z,49.41
2024-03-05T12:23:15.124Z,49.45
2024-03-05T12:26:03.057Z,49.24
2024-03-05T12:28:33.589Z,48.59
2024-03-05T12:31:00.680Z,48.49
2024-03-05T12:33:27.737Z,48.64
2024-03-05T12:35:54.980Z,48.86
2024-03-05T12:38:23.599Z,48.98
2024-03-05T12:41:00.575Z,49.29
2024-03-05T12:43:29.850Z,49.64
2024-03-05T12:46:02.955Z,49.44
2024-03-05T12:48:32.531Z,49.09
2024-03-05T12:51:03.890Z,49.34
2024-03-05T12:53:31.827Z,49.27
2024-03-05T12:56:02.378Z,49.69
2024-03-05T12:58:43.504Z,50.12
2024-03-05T13:01:15.437Z,50.25
2024-03-05T13:03:45.686Z,50.53
2024-03-05T13:06:14.892Z,50.81
2024-03-05T13:08:42.309Z,50.96
2024-03-05T13:11:09.122Z,51.02
2024-03-05T13:13:35.839Z,51.07
2024-03-05T13:16:02.522Z,51.45
2024-03-05T13:18:29.575Z,51.99
2024-03-05T13:20:57.419Z,52.27
2024-03-05T13:23:24.350Z,52.14
2024-03-05T13:25:51.040Z,52.11
2024-03-05T13:28:17.660Z,52.17
2024-03-05T13:30:44.715Z,52.30
2024-03-05T13:33:12.702Z,52.41
2024-03-05T13:35:41.266Z,52.46
2024-03-05T13:38:10.848Z,52.40
2024-03-05T13:40:37.898Z,52.59
2024-03-05T13:43:04.864Z,52.94
2024-03-05T13:45:31.602Z,53.25
2024-03-05T13:47:58.552Z,53.50
2024-03-05T13:50:25.298Z,53.58
2024-03-05T13:52:52.271Z,53.80
2024-03-05T13:55:24.921Z,53.77
2024-03-05T13:57:52.515Z,53.83
2024-03-05T14:00:20.164Z,54.07
2024-03-05T14:02:46.880Z,54.17
2024-03-05T14:05:14.050Z,54.32
2024-03-05T14:07:40.650Z,54.42
2024-03-05T14:10:11.246Z,54.53
2024-03-05T14:12:42.366Z,54.66
2024-03-05T14:15:20.192Z,54.75
2024-03-05T14:17:46.737Z,54.85
2024-03-05T14:20:14.003Z,55.16
2024-03-05T14:22:43.891Z,55.42
2024-03-05T14:25:12.301Z,55.74
2024-03-05T14:27:42.315Z,55.91
2024-03-05T14:30:14.265Z,56.29
2024-03-05T14:32:43.830Z,56.50
2024-03-05T14:35:11.207Z,56.75
2024-03-05T14:37:37.821Z,56.70
2024-03-05T14:40:05.570Z,56.95
2024-03-05T14:42:34.421Z,56.95
2024-03-05T14:45:01.672Z,57.02
2024-03-05T14:47:28.198Z,56.79
2024-03-05T14:49:55.354Z,56.99
2024-03-05T14:52:22.979Z,57.15
2024-03-05T14:54:49.683Z,57.29
2024-03-05T14:57:16.213Z,57.66
2024-03-05T14:59:42.801Z,58.18
2024-03-05T15:02:10.414Z,58.60
2024-03-05T15:04:37.107Z,59.07
2024-03-05T15:07:04.269Z,59.42
2024-03-05T15:09:33.577Z,59.78
2024-03-05T15:18:36.798Z,60.75
2024-03-05T15:21:10.095Z,60.96
2024-03-05T15:23:38.717Z,61.13
2024-03-05T15:26:07.108Z,61.27
2024-03-05T15:28:38.173Z,61.59
2024-03-05T15:31:10.318Z,61.67
2024-03-05T15:33:41.118Z,62.18
2024-03-05T15:36:09.809Z,62.30
2024-03-05T15:38:36.983Z,62.63
2024-03-05T15:47:40.775Z,63.80
2024-03-05T15:50:10.400Z,64.03
2024-03-05T15:52:37.953Z,64.20
2024-03-05T15:55:06.174Z,64.37
2024-03-05T15:57:53.554Z,64.56
2024-03-05T16:00:30.640Z,64.74
2024-03-05T16:03:10.969Z,64.99
2024-03-05T16:05:51.796Z,65.11
2024-03-05T16:08:27.484Z,65.56
2024-03-05T16:10:55.756Z,65.76
2024-03-05T16:13:23.675Z,66.15
2024-03-05T16:15:51.604Z,66.26
2024-03-05T16:18:19.100Z,66.52
2024-03-05T16:20:47.601Z,66.67
2024-03-05T16:23:15.308Z,66.91
2024-03-05T16:25:43.115Z,66.96
2024-03-05T16:28:10.921Z,67.12
2024-03-05T16:30:39.459Z,67.17
2024-03-05T16:33:07.899Z,67.37
2024-03-05T16:35:37.221Z,67.53
2024-03-05T16:38:06.188Z,67.60
2024-03-05T16:40:38.349Z,67.65
2024-03-05T16:43:07.660Z,67.61
2024-03-05T16:45:36.579Z,67.65
2024-03-05T16:48:10.902Z,67.67
2024-03-05T16:50:44.201Z,67.57
2024-03-05T16:53:12.746Z,67.49
2024-03-05T16:55:40.939Z,67.39
2024-03-05T16:58:13.508Z,67.40
2024-03-05T17:00:49.066Z,67.49
2024-03-05T17:03:16.470Z,67.56
2024-03-05T17:05:47.773Z,67.70
2024-03-05T17:08:16.192Z,67.94
2024-03-05T17:10:45.732Z,68.33
2024-03-05T17:13:20.395Z,68.77
2024-03-05T17:15:56.610Z,69.27
2024-03-05T17:18:25.528Z,69.59
2024-03-05T17:20:54.960Z,69.92
2024-03-05T17:23:26.225Z,70.48
2024-03-05T17:25:57.521Z,70.91
2024-03-05T17:28:28.236Z,71.27
2024-03-05T17:30:57.558Z,71.76
2024-03-05T17:33:25.544Z,72.15
2024-03-05T17:35:56.567Z,72.47
2024-03-05T17:38:26.272Z,72.95
2024-03-05T17:40:54.654Z,73.46
2024-03-05T17:43:21.871Z,74.01
2024-03-05T17:45:49.730Z,74.18
2024-03-05T17:48:17.315Z,74.32
2024-03-05T17:50:46.360Z,74.66
2024-03-05T17:53:14.571Z,74.88
2024-03-05T17:55:41.832Z,75.10
2024-03-05T17:58:10.013Z,75.46
2024-03-05T18:00:46.723Z,75.77
2024-03-05T18:03:19.007Z,75.80
2024-03-05T18:05:47.257Z,75.89
2024-03-05T18:08:15.067Z,76.16
2024-03-05T18:10:43.483Z,76.27
2024-03-05T18:13:11.926Z,76.53
2024-03-05T18:15:40.100Z,76.72
2024-03-05T18:18:08.168Z,76.85
2024-03-05T18:20:36.841Z,76.84
2024-03-05T18:23:06.711Z,77.03
2024-03-05T18:32:16.904Z,77.56
2024-03-05T18:34:44.390Z,77.61
2024-03-05T18:37:13.190Z,77.81
2024-03-05T18:39:40.352Z,77.74
2024-03-05T18:42:10.544Z,77.85
2024-03-05T18:44:39.426Z,78.00
2024-03-05T18:47:08.278Z,77.97
2024-03-05T18:49:35.864Z,78.09
2024-03-05T18:52:05.059Z,78.28
2024-03-05T18:54:32.548Z,78.18
2024-03-05T18:57:01.333Z,78.22
2024-03-05T18:59:30.489Z,78.29
2024-03-05T19:01:57.928Z,78.31
2024-03-05T19:04:27.804Z,78.34
2024-03-05T19:06:55.088Z,78.69
2024-03-05T19:09:22.301Z,79.06
2024-03-05T19:11:49.745Z,79.31
2024-03-05T19:14:19.020Z,79.36
2024-03-05T19:16:48.590Z,79.49
2024-03-05T19:19:16.982Z,79.60
2024-03-05T19:21:45.546Z,79.60
2024-03-05T19:24:13.298Z,79.61
2024-03-05T19:26:40.725Z,79.49
2024-03-05T19:29:08.369Z,79.43
2024-03-05T19:31:35.917Z,79.31
2024-03-05T19:34:04.214Z,79.31
2024-03-05T19:36:32.566Z,79.22
2024-03-05T19:39:00.621Z,79.17
2024-03-05T19:41:28.756Z,79.09
2024-03-05T19:43:59.953Z,79.12
2024-03-05T19:46:27.701Z,79.36
2024-03-05T19:48:56.691Z,79.30
2024-03-05T19:57:38.500Z,79.80
2024-03-05T20:00:13.439Z,79.76
2024-03-05T20:02:41.413Z,79.92
2024-03-05T20:05:09.112Z,80.07
2024-03-05T20:07:36.907Z,80.24
2024-03-05T20:10:05.689Z,80.51
2024-03-05T20:12:33.015Z,80.59
2024-03-05T20:15:00.078Z,80.65
2024-03-05T20:17:28.643Z,80.75
2024-03-05T20:19:55.984Z,80.76
2024-03-05T20:22:26.289Z,81.02
2024-03-05T20:25:00.282Z,81.08
2024-03-05T20:27:34.092Z,81.29
2024-03-05T20:30:02.748Z,81.51
2024-03-05T20:32:30.743Z,81.65
2024-03-05T20:34:58.910Z,81.85
2024-03-05T20:37:27.166Z,82.08
2024-03-05T20:39:57.343Z,82.43
2024-03-05T20:42:24.881Z,82.82
2024-03-05T20:44:52.293Z,83.40
2024-03-05T20:47:20.470Z,83.72
2024-03-05T20:49:48.003Z,84.00
2024-03-05T20:52:19.353Z,84.30
2024-03-05T20:54:47.453Z,84.75
2024-03-05T20:57:14.841Z,84.91
2024-03-05T20:59:43.485Z,85.38
2024-03-05T21:02:11.817Z,85.68
2024-03-05T21:04:39.642Z,86.23
2024-03-05T21:07:07.433Z,86.52
2024-03-05T21:09:34.940Z,87.03
2024-03-05T21:12:05.060Z,87.20
2024-03-05T21:14:33.154Z,87.41
2024-03-05T21:17:00.539Z,87.81
2024-03-05T21:19:30.051Z,88.05
2024-03-05T21:21:57.879Z,88.30
2024-03-05T21:24:27.605Z,88.28
2024-03-05T21:27:10.038Z,88.45
2024-03-05T21:29:42.283Z,88.53
2024-03-05T21:32:10.134Z,88.60
2024-03-05T21:34:37.558Z,88.69
2024-03-05T21:37:05.353Z,88.81
2024-03-05T21:46:00.137Z,88.85
2024-03-05T21:48:28.047Z,88.73
2024-03-05T21:51:03.505Z,88.89
2024-03-05T21:53:40.058Z,89.12
2024-03-05T21:56:07.776Z,89.33
2024-03-05T21:58:37.562Z,89.47
2024-03-05T22:01:06.091Z,89.89
2024-03-05T22:03:36.196Z,90.15
2024-03-05T22:06:11.914Z,90.73
2024-03-05T22:08:42.502Z,91.07
2024-03-05T22:35:21.682Z,97.04
2024-03-05T22:37:54.036Z,97.49
2024-03-05T22:40:23.390Z,97.62
2024-03-05T22:42:50.810Z,97.88
2024-03-05T22:45:21.249Z,97.90
2024-03-05T22:47:52.403Z,98.04
2024-03-05T22:50:19.960Z,98.18
2024-03-05T22:52:47.253Z,98.61
2024-03-05T22:55:14.399Z,98.95
2024-03-05T22:57:52.034Z,99.40
2024-03-05T23:00:51.823Z,99.87
2024-03-05T23:03:19.497Z,100.00
2024-03-05T23:05:47.896Z,100.00
2024-03-05T23:08:15.787Z,100.00
2024-03-05T23:10:43.132Z,100.00
2024-03-05T23:13:10.561Z,100.00
2024-03-05T23:15:38.516Z,100.00
2024-03-05T23:18:07.034Z,100.00
2024-03-05T23:20:34.220Z,100.00
2024-03-05T23:23:01.453Z,100.00
2024-03-05T23:25:29.010Z,100.00
2024-03-05T23:27:58.764Z,100.00
2024-03-05T23:30:27.305Z,100.00
2024-03-05T23:32:56.018Z,100.00
2024-03-05T23:35:23.961Z,100.00
2024-03-05T23:38:12.994Z,100.00
2024-03-05T23:40:40.620Z,100.00
2024-03-05T23:43:07.802Z,100.00
2024-03-05T23:45:35.256Z,100.00
2024-03-05T23:48:02.631Z,100.00
2024-03-05T23:50:30.551Z,100.00
2024-03-05T23:52:57.618Z,100.00
2024-03-05T23:55:24.954Z,100.00
2024-03-05T23:57:52.114Z,100.00
